Terminal Aerodrome Forecast
Issued by NWS San Angelo, TX

Home | Current Version | Previous Version | Text Only | Print | Product List | Glossary On
Versions: 1 2 3 4 5 6 7 8 9 10 11 12 13 14 15 16 17 18 19 20
000
FTUS44 KSJT 191200 AAA
TAFSJT
TAF AMD
KSJT 191228Z 1912/2012 07007KT P6SM VCSH BKN015
      TEMPO 1912/1916 -SHRA BKN008
     FM191600 13010KT P6SM SCT030 BKN100
     FM191900 12009KT P6SM VCSH SCT050 BKN100
     FM200200 13006KT P6SM BKN080
     FM200900 15005KT P6SM BKN015=

USA.gov is the U.S. government's official web portal to all federal, state and local government web resources and services.